Time;durP1;ratioP1;P1;durP2;ratioP2;P2;SDS_P1;SDS_P2;PMS_P1;PMS_P2;Temp;Humidity;BMP_temperature;BMP_pressure;BME280_temperature;BME280_humidity;BME280_pressure;Samples;Min_cycle;Max_cycle;Signal;HPM_P1;HPM_P2
2023/03/02 00:01:05;;;;;;;32.40;17.33;;;;;;;3.74;59.99;100251.44;4944134;28;20502;-92
2023/03/02 00:03:32;;;;;;;32.92;16.95;;;;;;;3.74;59.78;100250.56;4965675;28;20620;-92
2023/03/02 00:05:59;;;;;;;33.95;17.33;;;;;;;3.76;59.82;100249.53;4951934;28;20403;-91
2023/03/02 00:08:26;;;;;;;35.15;16.77;;;;;;;3.79;59.47;100253.78;4950278;28;20069;-92
2023/03/02 00:10:55;;;;;;;30.25;16.50;;;;;;;3.74;59.55;100246.19;4944692;28;20060;-92
2023/03/02 00:13:22;;;;;;;38.05;18.55;;;;;;;3.75;59.88;100245.22;4962087;28;20062;-92
2023/03/02 00:15:49;;;;;;;32.55;16.92;;;;;;;3.72;59.78;100242.78;4960842;28;20046;-91
2023/03/02 00:18:16;;;;;;;33.00;16.00;;;;;;;3.62;60.13;100250.28;4964145;28;20042;-91
2023/03/02 00:20:42;;;;;;;41.50;18.48;;;;;;;3.58;60.10;100243.50;4945618;28;20053;-92
2023/03/02 00:23:09;;;;;;;34.78;17.05;;;;;;;3.50;60.46;100247.47;4944427;28;20498;-92
2023/03/02 00:25:36;;;;;;;33.60;16.98;;;;;;;3.61;60.06;100253.00;4962299;28;20053;-92
2023/03/02 00:28:02;;;;;;;34.80;17.15;;;;;;;3.57;60.31;100239.19;4959844;28;20101;-91
2023/03/02 00:30:29;;;;;;;35.45;17.63;;;;;;;3.39;61.09;100248.88;4950778;28;20050;-92
2023/03/02 00:32:57;;;;;;;32.97;16.70;;;;;;;3.50;60.46;100244.84;4947920;28;20050;-92
2023/03/02 00:35:27;;;;;;;38.13;17.63;;;;;;;3.46;60.66;100242.38;4935207;28;20522;-91
2023/03/02 00:37:54;;;;;;;35.03;16.80;;;;;;;3.41;60.83;100246.16;4950739;28;20043;-92
2023/03/02 00:40:21;;;;;;;32.05;16.75;;;;;;;3.42;60.68;100245.25;4962459;28;20042;-92
2023/03/02 00:42:47;;;;;;;34.65;16.67;;;;;;;3.46;60.45;100241.50;4932887;28;20047;-92
2023/03/02 00:45:14;;;;;;;34.22;16.42;;;;;;;3.46;60.41;100239.75;4950553;28;20105;-89
2023/03/02 00:47:41;;;;;;;32.60;17.77;;;;;;;3.46;60.34;100245.00;4954140;28;20039;-91
2023/03/02 00:50:09;;;;;;;34.42;16.60;;;;;;;3.39;60.52;100237.53;4958701;28;20505;-92
2023/03/02 00:52:36;;;;;;;35.40;16.88;;;;;;;3.33;60.61;100229.97;4961621;28;20406;-90
2023/03/02 00:55:03;;;;;;;32.38;16.58;;;;;;;3.33;60.61;100240.47;4951845;28;20070;-92
2023/03/02 00:57:29;;;;;;;37.10;17.65;;;;;;;3.40;60.36;100236.59;4949112;28;20518;-92
2023/03/02 00:59:56;;;;;;;37.30;17.75;;;;;;;3.31;60.56;100227.44;4953281;28;20051;-91
2023/03/02 01:02:32;;;;;;;32.10;16.58;;;;;;;3.31;60.69;100235.31;4945693;28;20065;-91
2023/03/02 01:04:59;;;;;;;35.83;17.58;;;;;;;3.26;60.53;100230.28;4934760;28;20058;-94
2023/03/02 01:07:27;;;;;;;34.33;17.15;;;;;;;3.29;60.63;100223.19;4932316;28;20125;-93
2023/03/02 01:09:53;;;;;;;32.78;16.65;;;;;;;3.22;61.13;100228.75;4965127;28;20070;-92
2023/03/02 01:12:20;;;;;;;35.15;17.15;;;;;;;3.22;60.93;100220.88;4959461;28;20050;-92
2023/03/02 01:14:47;;;;;;;35.08;17.58;;;;;;;3.26;60.83;100216.34;4944202;28;20062;-91
2023/03/02 01:17:15;;;;;;;38.03;17.30;;;;;;;3.21;61.06;100215.72;4967167;28;20050;-92
2023/03/02 01:19:42;;;;;;;34.67;17.58;;;;;;;3.23;60.87;100214.72;4949100;28;20057;-92
2023/03/02 01:22:09;;;;;;;33.05;16.05;;;;;;;3.17;61.03;100198.44;4957520;28;20495;-91
2023/03/02 01:24:35;;;;;;;34.03;17.63;;;;;;;3.14;60.99;100199.44;4931243;28;20402;-92
2023/03/02 01:27:03;;;;;;;37.45;18.95;;;;;;;3.08;61.39;100198.88;4949054;28;20053;-92
2023/03/02 01:29:29;;;;;;;36.80;16.70;;;;;;;3.10;61.35;100192.63;4957375;28;20601;-91
2023/03/02 01:31:56;;;;;;;31.75;16.40;;;;;;;3.19;60.84;100183.47;4958693;28;20050;-92
2023/03/02 01:34:23;;;;;;;38.70;17.17;;;;;;;3.08;61.31;100189.28;4969206;28;20125;-92
2023/03/02 01:36:50;;;;;;;32.55;17.08;;;;;;;3.12;61.24;100184.69;4958955;28;20127;-92
2023/03/02 01:39:17;;;;;;;32.92;17.00;;;;;;;3.06;61.48;100196.38;4945462;28;20043;-93
2023/03/02 01:41:45;;;;;;;37.40;17.17;;;;;;;3.04;61.55;100171.97;4931518;28;20078;-92
2023/03/02 01:44:36;;;;;;;34.60;18.88;;;;;;;3.00;61.38;100181.78;4964452;28;20125;-92
2023/03/02 01:47:12;;;;;;;38.17;17.27;;;;;;;3.06;61.31;100170.13;4979171;28;20051;-91
2023/03/02 01:49:56;;;;;;;34.72;17.25;;;;;;;3.09;61.65;100171.75;4945539;28;20510;-92
2023/03/02 01:52:25;;;;;;;34.92;17.00;;;;;;;3.19;61.19;100175.59;4949157;28;20126;-93
2023/03/02 01:54:54;;;;;;;34.80;16.60;;;;;;;3.18;61.33;100176.50;4957420;28;20049;-90
2023/03/02 01:57:26;;;;;;;33.72;16.80;;;;;;;3.18;61.23;100171.25;4935142;28;20125;-92
2023/03/02 01:59:58;;;;;;;32.75;17.48;;;;;;;3.19;61.12;100171.19;4942985;28;20059;-92
2023/03/02 02:02:25;;;;;;;35.90;16.58;;;;;;;3.09;61.11;100169.13;4954180;28;20101;-92
2023/03/02 02:05:36;;;;;;;35.08;17.17;;;;;;;3.03;61.46;100152.78;4950263;28;20096;-92
2023/03/02 02:08:03;;;;;;;39.13;17.38;;;;;;;3.06;61.64;100151.75;4922932;28;20162;-92
2023/03/02 02:10:31;;;;;;;37.72;18.40;;;;;;;3.01;61.45;100151.16;4961542;28;20050;-92
2023/03/02 02:12:57;;;;;;;34.40;18.05;;;;;;;2.96;61.69;100154.00;4938040;28;20577;-93
2023/03/02 02:15:25;;;;;;;36.47;17.77;;;;;;;3.00;61.31;100149.44;4945201;28;20065;-92
2023/03/02 02:17:54;;;;;;;33.28;16.67;;;;;;;2.97;61.73;100158.31;4958294;28;20141;-91
2023/03/02 02:20:34;;;;;;;40.00;18.70;;;;;;;3.00;61.57;100145.06;4962763;28;20384;-92
2023/03/02 02:23:06;;;;;;;34.88;17.48;;;;;;;3.04;61.45;100151.00;4944856;28;20046;-92
2023/03/02 02:25:42;;;;;;;37.08;18.42;;;;;;;3.04;61.58;100151.00;4938621;28;20576;-92
2023/03/02 02:28:17;;;;;;;33.33;16.67;;;;;;;3.08;61.50;100149.91;4961586;28;20153;-93
2023/03/02 02:30:45;;;;;;;36.40;17.80;;;;;;;3.09;61.43;100156.00;4964536;28;20038;-92
2023/03/02 02:33:15;;;;;;;36.75;17.95;;;;;;;3.04;61.55;100157.09;4937577;28;20490;-91
2023/03/02 02:35:45;;;;;;;34.13;18.00;;;;;;;3.05;61.22;100155.31;4961454;28;20049;-92
2023/03/02 02:38:13;;;;;;;34.50;16.63;;;;;;;3.03;61.54;100144.06;4936138;28;20110;-92
2023/03/02 02:40:50;;;;;;;35.30;16.58;;;;;;;3.03;61.46;100138.81;4976166;28;20429;-91
2023/03/02 02:43:21;;;;;;;34.38;16.42;;;;;;;3.00;61.76;100141.56;4966537;28;20047;-92
2023/03/02 02:45:51;;;;;;;32.22;16.80;;;;;;;3.00;61.60;100137.19;4949965;28;20549;-92
2023/03/02 02:48:22;;;;;;;31.73;16.73;;;;;;;3.06;61.39;100132.56;4927928;28;20058;-92
2023/03/02 02:50:58;;;;;;;37.15;17.48;;;;;;;3.03;61.35;100144.06;4941691;28;20130;-92
2023/03/02 02:53:39;;;;;;;38.05;17.33;;;;;;;2.94;61.48;100140.13;4965363;28;20458;-92
2023/03/02 02:56:07;;;;;;;36.75;17.45;;;;;;;3.02;61.41;100137.94;4949645;28;20050;-92
2023/03/02 02:58:49;;;;;;;36.22;17.10;;;;;;;2.97;61.44;100141.75;4946535;28;20430;-92
2023/03/02 03:01:18;;;;;;;37.42;17.15;;;;;;;2.95;61.63;100138.34;4935383;28;20403;-92
2023/03/02 03:03:50;;;;;;;33.17;16.20;;;;;;;2.91;61.70;100136.81;4944346;28;20049;-92
2023/03/02 03:06:19;;;;;;;33.63;16.08;;;;;;;2.91;61.78;100129.81;4930407;28;20038;-92
2023/03/02 03:08:51;;;;;;;33.60;15.90;;;;;;;2.95;62.04;100131.34;4933923;28;20058;-92
2023/03/02 03:11:30;;;;;;;30.00;16.83;;;;;;;3.01;61.79;100135.41;4930973;28;20046;-91
2023/03/02 03:14:01;;;;;;;30.55;15.60;;;;;;;2.98;61.79;100141.66;4929355;28;20410;-92
2023/03/02 03:16:29;;;;;;;34.67;17.05;;;;;;;3.14;60.95;100140.88;4941820;28;20162;-91
2023/03/02 03:19:24;;;;;;;35.33;15.45;;;;;;;2.92;61.84;100141.13;4933479;28;20050;-91
2023/03/02 03:21:55;;;;;;;35.95;16.98;;;;;;;2.87;62.06;100143.16;4911173;28;20054;-91
2023/03/02 03:24:25;;;;;;;30.67;16.38;;;;;;;2.96;61.63;100143.53;4961585;28;20505;-91
2023/03/02 03:26:53;;;;;;;37.50;17.45;;;;;;;2.92;61.65;100146.38;4935299;28;20416;-91
2023/03/02 03:29:23;;;;;;;33.35;17.30;;;;;;;2.79;62.15;100147.00;4932871;28;20053;-92
2023/03/02 03:31:52;;;;;;;30.63;16.30;;;;;;;2.91;61.68;100150.78;4948374;28;20046;-91
2023/03/02 03:34:20;;;;;;;34.97;16.77;;;;;;;2.93;61.69;100146.31;4946457;28;20046;-91
2023/03/02 03:36:47;;;;;;;40.30;16.20;;;;;;;2.97;61.69;100137.34;4929753;28;20109;-91
2023/03/02 03:39:15;;;;;;;30.88;15.75;;;;;;;2.92;61.67;100151.63;4963111;28;20088;-91
2023/03/02 03:41:42;;;;;;;33.80;16.70;;;;;;;2.86;61.88;100152.78;4951349;28;20112;-92
2023/03/02 03:44:10;;;;;;;32.30;15.40;;;;;;;2.76;62.09;100151.56;4952806;28;20042;-92
2023/03/02 03:46:39;;;;;;;33.08;16.08;;;;;;;2.92;61.47;100147.22;4944889;28;20142;-91
2023/03/02 03:49:07;;;;;;;30.70;16.17;;;;;;;2.89;61.83;100146.53;4964964;28;20055;-92
2023/03/02 03:51:34;;;;;;;33.25;15.90;;;;;;;2.84;61.77;100138.91;4944588;28;20050;-92
2023/03/02 03:54:06;;;;;;;28.05;16.23;;;;;;;2.89;61.90;100130.81;4926994;28;20058;-92
2023/03/02 03:56:41;;;;;;;29.58;16.13;;;;;;;2.81;62.17;100137.28;4941352;28;20499;-93
2023/03/02 03:59:11;;;;;;;33.45;16.48;;;;;;;2.76;62.08;100131.44;4936422;28;20050;-92
2023/03/02 04:01:55;;;;;;;31.75;15.95;;;;;;;2.68;62.48;100132.75;4927518;28;20046;-91
2023/03/02 04:04:28;;;;;;;32.17;15.85;;;;;;;2.88;61.78;100129.97;4932649;28;20054;-92
2023/03/02 04:06:56;;;;;;;31.75;15.57;;;;;;;2.80;62.04;100127.75;4932090;28;20046;-92
2023/03/02 04:09:24;;;;;;;29.77;15.98;;;;;;;2.69;62.56;100132.66;4963429;28;20046;-92
2023/03/02 04:11:55;;;;;;;32.47;15.07;;;;;;;2.74;62.68;100128.03;4932945;28;20113;-93
2023/03/02 04:14:23;;;;;;;32.75;15.75;;;;;;;2.68;62.59;100123.13;4942464;28;20059;-91
2023/03/02 04:16:52;;;;;;;32.63;15.48;;;;;;;2.70;62.51;100136.16;4947927;28;20043;-91
2023/03/02 04:19:21;;;;;;;32.00;15.52;;;;;;;2.85;61.89;100139.75;4956756;28;20061;-91
2023/03/02 04:21:53;;;;;;;29.85;14.98;;;;;;;2.66;62.66;100140.69;4950032;28;20453;-90
2023/03/02 04:24:22;;;;;;;33.38;16.35;;;;;;;2.61;63.00;100140.09;4962731;28;22751;-91
2023/03/02 04:26:51;;;;;;;28.98;15.23;;;;;;;2.63;62.83;100134.78;4919600;28;20113;-92
2023/03/02 04:29:18;;;;;;;31.88;16.05;;;;;;;2.65;62.82;100141.63;4949220;28;20333;-91
2023/03/02 04:31:47;;;;;;;28.58;15.18;;;;;;;2.65;62.51;100130.31;4942336;28;20062;-91
2023/03/02 04:34:15;;;;;;;32.92;16.23;;;;;;;2.66;62.60;100124.97;4940959;28;20043;-91
2023/03/02 04:36:43;;;;;;;30.85;15.45;;;;;;;2.68;62.79;100124.91;4948327;28;20689;-89
2023/03/02 04:39:14;;;;;;;27.88;15.07;;;;;;;2.65;62.75;100131.16;4962374;28;20058;-91
2023/03/02 04:41:45;;;;;;;33.20;16.30;;;;;;;2.70;62.30;100129.13;4940578;28;20534;-87
2023/03/02 04:44:12;;;;;;;33.00;15.32;;;;;;;2.67;62.36;100123.19;4957159;28;20506;-91
2023/03/02 04:46:39;;;;;;;32.95;14.07;;;;;;;2.74;62.73;100124.56;4959793;28;20052;-91
2023/03/02 04:49:07;;;;;;;33.40;16.55;;;;;;;2.66;62.62;100129.38;4961040;28;20043;-91
2023/03/02 04:51:37;;;;;;;27.95;15.07;;;;;;;2.68;62.68;100125.75;4941277;28;20097;-90
2023/03/02 04:54:16;;;;;;;32.20;15.98;;;;;;;2.54;63.08;100126.44;4969220;28;20133;-91
2023/03/02 04:56:47;;;;;;;36.30;16.13;;;;;;;2.67;63.06;100128.44;4938299;28;20387;-91
2023/03/02 04:59:15;;;;;;;34.35;15.48;;;;;;;2.59;62.85;100128.81;4948255;28;20042;-91
2023/03/02 05:01:41;;;;;;;31.67;16.10;;;;;;;2.52;63.29;100128.31;4953226;28;20046;-91
2023/03/02 05:04:08;;;;;;;30.95;13.68;;;;;;;2.57;63.12;100133.28;4963712;28;20105;-91
2023/03/02 05:06:35;;;;;;;30.92;15.88;;;;;;;2.56;62.81;100126.34;4934085;28;20521;-91
2023/03/02 05:09:03;;;;;;;33.10;15.13;;;;;;;2.44;63.57;100127.81;4958253;28;20046;-91
2023/03/02 05:11:30;;;;;;;28.90;14.48;;;;;;;2.43;63.59;100115.66;4946151;28;20049;-91
2023/03/02 05:13:59;;;;;;;32.38;15.02;;;;;;;2.40;63.68;100118.44;4960597;28;20133;-90
2023/03/02 05:16:31;;;;;;;29.60;14.52;;;;;;;2.44;63.53;100119.94;4958717;28;20054;-91
2023/03/02 05:18:59;;;;;;;31.33;14.93;;;;;;;2.50;63.04;100122.28;4928179;28;20054;-91
2023/03/02 05:21:26;;;;;;;32.30;15.10;;;;;;;2.40;63.67;100110.56;4956546;28;20049;-91
2023/03/02 05:23:53;;;;;;;28.77;14.63;;;;;;;2.41;63.47;100117.50;4950145;28;20134;-91
2023/03/02 05:26:20;;;;;;;33.58;15.45;;;;;;;2.44;63.43;100112.09;4949374;28;20122;-91
2023/03/02 05:28:47;;;;;;;33.55;16.20;;;;;;;2.40;63.73;100113.19;4959066;28;20042;-92
2023/03/02 05:31:27;;;;;;;28.83;14.55;;;;;;;2.56;62.93;100103.59;4925202;28;20047;-91
2023/03/02 05:33:53;;;;;;;31.50;15.00;;;;;;;2.64;62.32;100102.38;4955653;28;20457;-90
2023/03/02 05:36:20;;;;;;;31.85;14.55;;;;;;;2.44;63.28;100101.59;4964519;28;20430;-83
2023/03/02 05:38:49;;;;;;;29.10;14.00;;;;;;;2.39;63.40;100099.25;4974666;28;20034;-83
2023/03/02 05:41:15;;;;;;;31.73;13.65;;;;;;;2.48;63.34;100099.69;4960709;28;20046;-83
2023/03/02 05:43:42;;;;;;;33.15;14.70;;;;;;;2.38;63.34;100107.16;4955586;28;20057;-83
2023/03/02 05:46:09;;;;;;;29.75;14.85;;;;;;;2.37;63.57;100108.94;4965692;28;20050;-82
2023/03/02 05:48:36;;;;;;;30.15;14.70;;;;;;;2.50;63.24;100110.97;4958548;28;20049;-83
2023/03/02 05:51:03;;;;;;;30.23;14.23;;;;;;;2.38;63.61;100117.66;4946440;28;20082;-83
2023/03/02 05:53:29;;;;;;;28.98;13.75;;;;;;;2.46;63.53;100112.03;4978472;28;20047;-83
2023/03/02 05:55:56;;;;;;;31.10;14.88;;;;;;;2.35;63.79;100118.66;4960905;28;20378;-82
2023/03/02 05:58:23;;;;;;;28.63;14.75;;;;;;;2.44;63.60;100119.94;4976993;28;20116;-82
2023/03/02 06:00:49;;;;;;;30.45;13.95;;;;;;;2.38;63.58;100121.13;4971841;28;20042;-82
2023/03/02 06:03:16;;;;;;;29.40;14.20;;;;;;;2.46;63.26;100127.75;4958794;28;20417;-83
2023/03/02 06:05:43;;;;;;;30.05;14.13;;;;;;;2.42;63.87;100118.34;4973550;28;20049;-82
2023/03/02 06:08:10;;;;;;;31.08;14.27;;;;;;;2.41;63.69;100127.97;4947495;28;20401;-83
2023/03/02 06:10:37;;;;;;;31.65;15.27;;;;;;;2.36;63.84;100138.69;4957738;28;20129;-83
2023/03/02 06:13:03;;;;;;;30.20;14.48;;;;;;;2.32;63.78;100124.06;4974877;28;20042;-83
2023/03/02 06:15:30;;;;;;;28.50;14.57;;;;;;;2.28;64.24;100138.22;4962489;28;20046;-83
2023/03/02 06:17:57;;;;;;;33.45;14.68;;;;;;;2.36;64.12;100132.59;4975637;28;20067;-82
2023/03/02 06:20:24;;;;;;;31.52;14.10;;;;;;;2.37;63.86;100140.41;4943168;28;20054;-83
2023/03/02 06:22:51;;;;;;;30.73;14.27;;;;;;;2.38;63.73;100149.09;4971700;28;20466;-83
2023/03/02 06:25:20;;;;;;;29.23;14.43;;;;;;;2.38;64.00;100156.97;4958785;28;20403;-82
2023/03/02 06:27:50;;;;;;;31.33;15.25;;;;;;;2.45;63.81;100147.03;4958747;28;21055;-82
2023/03/02 06:30:19;;;;;;;32.67;16.13;;;;;;;2.37;64.16;100152.66;4956112;28;20093;-83
2023/03/02 06:32:45;;;;;;;30.02;14.55;;;;;;;2.36;64.21;100149.16;4939692;28;20050;-83
2023/03/02 06:35:12;;;;;;;30.08;14.05;;;;;;;2.36;64.41;100150.94;4959936;28;20069;-83
2023/03/02 06:37:39;;;;;;;34.58;14.93;;;;;;;2.47;63.88;100153.03;4974166;28;20046;-82
2023/03/02 06:40:10;;;;;;;32.70;14.90;;;;;;;2.42;64.22;100155.03;4976488;28;20117;-82
2023/03/02 06:42:38;;;;;;;34.70;14.75;;;;;;;2.43;64.19;100156.75;4949294;28;20126;-82
2023/03/02 06:45:05;;;;;;;31.73;14.00;;;;;;;2.47;64.07;100166.13;4959149;28;20101;-82
2023/03/02 06:47:32;;;;;;;29.45;14.25;;;;;;;2.49;64.14;100164.28;4939988;28;20126;-82
2023/03/02 06:49:59;;;;;;;26.98;13.73;;;;;;;2.54;63.88;100170.16;4977158;28;20109;-83
2023/03/02 06:52:26;;;;;;;29.48;14.10;;;;;;;2.45;64.15;100157.53;4959258;28;20050;-83
2023/03/02 06:54:53;;;;;;;27.15;14.32;;;;;;;2.46;64.22;100160.03;4963043;28;20042;-82
2023/03/02 06:57:20;;;;;;;28.88;14.10;;;;;;;2.50;63.94;100171.25;4931230;28;20049;-83
2023/03/02 06:59:47;;;;;;;30.48;15.00;;;;;;;2.52;64.20;100165.00;4950728;28;20126;-82
2023/03/02 07:02:14;;;;;;;32.00;14.55;;;;;;;2.53;64.07;100158.81;4963611;28;20043;-82
2023/03/02 07:04:40;;;;;;;29.92;15.35;;;;;;;2.62;63.91;100181.13;4975998;28;20398;-82
2023/03/02 07:07:07;;;;;;;25.60;13.98;;;;;;;2.66;63.87;100158.22;4962876;28;20049;-82
2023/03/02 07:09:34;;;;;;;33.25;14.77;;;;;;;2.66;63.54;100161.66;4974219;28;20120;-83
2023/03/02 07:12:01;;;;;;;28.73;14.73;;;;;;;2.69;63.84;100169.38;4976479;28;20047;-82
2023/03/02 07:14:28;;;;;;;31.70;14.68;;;;;;;2.70;63.81;100165.00;4957714;28;20199;-82
2023/03/02 07:16:56;;;;;;;36.85;14.50;;;;;;;2.75;63.30;100176.94;4960732;28;20050;-82
2023/03/02 07:19:23;;;;;;;31.10;15.52;;;;;;;2.75;63.80;100171.72;4967309;28;20085;-82
2023/03/02 07:21:50;;;;;;;34.10;15.98;;;;;;;2.76;63.42;100170.78;4936404;28;20121;-83
2023/03/02 07:24:16;;;;;;;36.97;15.88;;;;;;;2.76;63.49;100170.78;4933765;28;20096;-83
2023/03/02 07:26:43;;;;;;;30.10;15.68;;;;;;;2.86;63.58;100181.66;4974917;28;20047;-84
2023/03/02 07:29:10;;;;;;;30.20;14.73;;;;;;;2.90;63.45;100169.22;4961137;28;20046;-83
2023/03/02 07:31:37;;;;;;;29.02;14.13;;;;;;;2.89;63.28;100173.63;4979793;28;20038;-83
2023/03/02 07:34:04;;;;;;;29.25;12.70;;;;;;;2.92;63.32;100177.84;4974555;28;20101;-83
2023/03/02 07:36:30;;;;;;;29.45;14.23;;;;;;;2.94;63.24;100182.09;4975031;28;20038;-82
2023/03/02 07:38:57;;;;;;;29.58;14.43;;;;;;;2.99;63.21;100181.88;4971730;28;20491;-83
2023/03/02 07:41:24;;;;;;;26.70;13.68;;;;;;;3.00;63.55;100187.03;4958263;28;20047;-82
2023/03/02 07:43:51;;;;;;;31.20;14.10;;;;;;;3.12;63.21;100180.28;4974465;28;20038;-83
2023/03/02 07:46:17;;;;;;;27.80;13.73;;;;;;;3.19;63.07;100186.94;4951195;28;20055;-83
2023/03/02 07:48:44;;;;;;;28.20;14.13;;;;;;;3.18;62.77;100179.13;4972899;28;20043;-82
2023/03/02 07:51:11;;;;;;;27.42;14.13;;;;;;;3.21;63.08;100187.69;4962204;28;20046;-82
2023/03/02 07:53:38;;;;;;;29.08;14.15;;;;;;;3.25;63.21;100191.84;4977205;28;20471;-83
2023/03/02 07:56:07;;;;;;;31.95;13.60;;;;;;;3.25;62.91;100194.47;4972024;28;20045;-83
2023/03/02 07:58:33;;;;;;;31.35;14.98;;;;;;;3.31;62.75;100200.31;4975472;28;20047;-83
2023/03/02 08:01:01;;;;;;;28.88;13.98;;;;;;;3.31;62.78;100195.94;4958027;28;20051;-83
2023/03/02 08:03:27;;;;;;;32.63;14.55;;;;;;;3.35;62.74;100188.75;4949997;28;20599;-83
2023/03/02 08:05:54;;;;;;;33.75;14.90;;;;;;;3.39;62.95;100191.13;4960636;28;20586;-83
2023/03/02 08:08:21;;;;;;;31.73;15.00;;;;;;;3.45;62.79;100184.69;4973823;28;20411;-83
2023/03/02 08:10:47;;;;;;;24.85;13.07;;;;;;;3.48;62.60;100184.53;4976125;28;20050;-83
2023/03/02 08:13:14;;;;;;;29.90;14.35;;;;;;;3.46;62.62;100189.88;4960548;28;20050;-83
2023/03/02 08:15:41;;;;;;;31.27;14.38;;;;;;;3.44;62.67;100189.09;4952173;28;20454;-83
2023/03/02 08:18:07;;;;;;;27.40;13.82;;;;;;;3.48;62.50;100182.75;4961183;28;20049;-83
2023/03/02 08:20:34;;;;;;;27.80;13.73;;;;;;;3.53;62.76;100177.25;4978167;28;20038;-82
2023/03/02 08:23:01;;;;;;;27.00;13.30;;;;;;;3.58;62.57;100177.84;4961746;28;20054;-82
2023/03/02 08:25:28;;;;;;;27.40;13.50;;;;;;;3.66;62.87;100173.06;4969891;28;20035;-83
2023/03/02 08:27:54;;;;;;;28.63;13.77;;;;;;;3.59;62.78;100189.22;4956175;28;20411;-83
2023/03/02 08:30:21;;;;;;;30.77;13.40;;;;;;;3.67;62.55;100171.28;4929770;28;20434;-82
2023/03/02 08:32:48;;;;;;;26.08;12.07;;;;;;;3.73;62.41;100172.72;4973373;28;20050;-83
2023/03/02 08:35:15;;;;;;;29.45;14.27;;;;;;;3.76;62.50;100176.00;4950490;28;20054;-83
2023/03/02 08:37:41;;;;;;;23.58;12.55;;;;;;;3.83;62.55;100173.91;4974963;28;20034;-83
2023/03/02 08:40:09;;;;;;;28.15;12.90;;;;;;;3.82;62.09;100167.81;4959648;28;20054;-83
2023/03/02 08:42:35;;;;;;;24.23;12.20;;;;;;;3.78;62.17;100161.00;4971881;28;20129;-82
2023/03/02 08:45:02;;;;;;;25.15;12.13;;;;;;;3.83;62.74;100164.22;4955360;28;20054;-83
2023/03/02 08:47:29;;;;;;;29.52;13.50;;;;;;;3.86;62.59;100155.34;4948719;28;20046;-83
2023/03/02 08:49:56;;;;;;;25.73;13.07;;;;;;;3.95;62.94;100167.97;4963346;28;20053;-83
2023/03/02 08:52:22;;;;;;;22.58;13.65;;;;;;;3.94;62.58;100153.13;4967666;28;20066;-83
2023/03/02 08:54:49;;;;;;;27.85;13.85;;;;;;;3.98;62.87;100143.31;4959190;28;20061;-83
2023/03/02 08:57:16;;;;;;;25.50;12.90;;;;;;;4.07;63.12;100150.66;4957695;28;20049;-83
2023/03/02 08:59:43;;;;;;;29.13;13.18;;;;;;;4.08;62.65;100144.47;4965288;28;20042;-83
2023/03/02 09:02:11;;;;;;;33.80;14.73;;;;;;;4.10;62.79;100140.00;4977902;28;20045;-83
2023/03/02 09:04:37;;;;;;;26.30;13.13;;;;;;;4.14;62.72;100139.69;4958532;28;20046;-82
2023/03/02 09:07:04;;;;;;;26.80;13.75;;;;;;;4.22;62.70;100141.06;4959880;28;20047;-83
2023/03/02 09:09:31;;;;;;;26.02;11.50;;;;;;;4.31;62.18;100146.63;4965186;28;20386;-83
2023/03/02 09:11:58;;;;;;;23.63;12.20;;;;;;;4.32;62.48;100153.56;4960311;28;20062;-83
2023/03/02 09:14:26;;;;;;;24.52;12.57;;;;;;;4.34;62.54;100148.25;4945829;28;20046;-84
2023/03/02 09:16:53;;;;;;;22.15;11.45;;;;;;;4.36;62.63;100143.75;4959486;28;20035;-83
2023/03/02 09:19:20;;;;;;;28.02;12.05;;;;;;;4.36;62.14;100138.50;4966196;28;20046;-83
2023/03/02 09:21:46;;;;;;;23.33;13.70;;;;;;;4.39;62.70;100143.56;4959001;28;20074;-83
2023/03/02 09:24:13;;;;;;;26.33;13.13;;;;;;;4.46;62.43;100138.81;4961195;28;20053;-83
2023/03/02 09:26:40;;;;;;;24.52;12.35;;;;;;;4.54;61.98;100136.56;4959383;28;20431;-83
2023/03/02 09:29:07;;;;;;;27.00;12.57;;;;;;;4.54;62.64;100139.19;4947918;28;20053;-82
2023/03/02 09:31:34;;;;;;;28.10;13.10;;;;;;;4.60;62.75;100140.63;4973488;28;20057;-83
2023/03/02 09:34:02;;;;;;;26.17;12.40;;;;;;;4.59;62.55;100141.56;4971337;28;20074;-83
2023/03/02 09:36:31;;;;;;;23.42;11.52;;;;;;;4.70;62.46;100139.13;4956422;28;20549;-83
2023/03/02 09:38:58;;;;;;;26.92;13.27;;;;;;;4.68;62.83;100139.25;4953928;28;20110;-82
2023/03/02 09:42:02;;;;;;;24.90;12.18;;;;;;;4.65;63.07;100144.66;4972910;28;20050;-83
2023/03/02 09:44:55;;;;;;;21.30;11.63;;;;;;;4.82;62.36;100156.00;4925944;28;20655;-83
2023/03/02 09:47:44;;;;;;;34.90;13.70;;;;;;;4.86;61.92;100133.78;4928405;28;20113;-83
2023/03/02 09:50:32;;;;;;;21.35;11.15;;;;;;;4.82;61.75;100141.03;4946613;28;20038;-83
2023/03/02 09:53:08;;;;;;;26.15;12.48;;;;;;;4.90;62.80;100136.16;4953931;28;20498;-83
2023/03/02 09:55:35;;;;;;;24.55;11.93;;;;;;;4.99;62.29;100138.25;4981199;28;20433;-83
2023/03/02 09:58:11;;;;;;;27.65;12.55;;;;;;;5.01;62.09;100130.25;4958000;28;20042;-83
2023/03/02 10:00:41;;;;;;;26.75;12.20;;;;;;;5.07;62.66;100124.63;4963154;28;20100;-83
2023/03/02 10:03:17;;;;;;;26.42;13.05;;;;;;;5.12;62.12;100130.44;4964873;28;20046;-83
2023/03/02 10:05:47;;;;;;;24.70;12.00;;;;;;;5.21;61.98;100136.94;4974523;28;20047;-82
2023/03/02 10:08:17;;;;;;;22.25;11.60;;;;;;;5.22;62.37;100128.09;4979727;28;20048;-83
2023/03/02 10:10:46;;;;;;;21.92;10.90;;;;;;;5.29;62.41;100134.69;4958473;28;20609;-83
2023/03/02 10:13:22;;;;;;;25.13;11.00;;;;;;;5.28;62.61;100138.25;4972129;28;20403;-82
2023/03/02 10:16:04;;;;;;;22.77;12.48;;;;;;;5.39;62.10;100130.56;4957976;28;20599;-83
2023/03/02 10:18:42;;;;;;;24.45;12.40;;;;;;;5.41;62.32;100133.06;4971580;28;20047;-83
2023/03/02 10:21:24;;;;;;;20.42;11.05;;;;;;;5.49;62.15;100129.97;4946249;28;20038;-82
2023/03/02 10:24:16;;;;;;;22.15;11.18;;;;;;;5.52;62.33;100120.09;4970592;28;20518;-83
2023/03/02 10:26:44;;;;;;;23.67;11.60;;;;;;;5.56;62.34;100136.53;4936581;28;20134;-82
2023/03/02 10:29:38;;;;;;;22.70;11.55;;;;;;;5.59;62.94;100116.09;4976551;28;20042;-83
2023/03/02 10:32:28;;;;;;;21.60;10.57;;;;;;;5.66;62.52;100116.56;4988393;28;20190;-82
2023/03/02 10:34:55;;;;;;;20.67;11.10;;;;;;;5.71;62.03;100122.41;4935790;28;20093;-82
2023/03/02 10:37:24;;;;;;;23.92;11.95;;;;;;;5.82;61.45;100112.00;4975640;28;20051;-82
2023/03/02 10:39:51;;;;;;;34.53;11.80;;;;;;;5.91;61.22;100120.28;4976347;28;20042;-82
2023/03/02 10:42:26;;;;;;;19.67;11.15;;;;;;;5.89;61.34;100128.28;4960685;28;20475;-82
2023/03/02 10:44:56;;;;;;;21.38;10.05;;;;;;;5.94;62.11;100123.59;4965683;28;20038;-82
2023/03/02 10:47:26;;;;;;;20.15;11.45;;;;;;;5.90;62.00;100119.41;4950080;28;20494;-82
2023/03/02 10:49:54;;;;;;;22.17;9.90;;;;;;;6.01;61.29;100119.63;4965992;28;20066;-82
2023/03/02 10:52:24;;;;;;;20.05;10.95;;;;;;;6.05;61.20;100121.09;4965096;28;20378;-82
2023/03/02 10:55:05;;;;;;;19.75;10.45;;;;;;;6.04;61.75;100122.03;4960989;28;20039;-82
2023/03/02 10:57:42;;;;;;;19.70;10.88;;;;;;;6.07;61.40;100110.44;4893649;29;20087;-84
2023/03/02 11:00:15;;;;;;;20.20;10.27;;;;;;;6.16;61.20;100124.84;4936035;28;20052;-82
2023/03/02 11:02:55;;;;;;;;;;;;;;;6.13;60.42;100103.94;4934498;28;20183;-83
2023/03/02 11:05:43;;;;;;;23.42;11.10;;;;;;;6.11;61.59;100098.78;4922281;28;19956;-82
2023/03/02 11:08:18;;;;;;;21.65;10.65;;;;;;;6.19;61.08;100109.66;4896513;28;20052;-83
2023/03/02 11:11:02;;;;;;;20.05;10.60;;;;;;;6.31;61.34;100097.47;4904300;28;20048;-82
2023/03/02 11:13:31;;;;;;;20.33;11.07;;;;;;;6.44;60.58;100097.50;4926899;28;20117;-82
2023/03/02 11:16:00;;;;;;;19.58;10.27;;;;;;;6.43;60.90;100090.50;4924127;28;20126;-82
2023/03/02 11:18:41;;;;;;;19.75;10.77;;;;;;;6.44;60.20;100087.78;4906981;28;20467;-83
2023/03/02 11:21:19;;;;;;;21.67;11.32;;;;;;;6.46;60.93;100092.94;4920493;28;20400;-81
2023/03/02 11:24:07;;;;;;;22.70;10.82;;;;;;;6.49;60.76;100090.94;4895353;28;20055;-82
2023/03/02 11:26:51;;;;;;;19.92;11.18;;;;;;;6.50;61.41;100082.06;4897039;28;25720;-82
2023/03/02 11:29:36;;;;;;;20.58;10.13;;;;;;;6.58;61.49;100073.63;4955922;28;20126;-82